createdAt,value
2022-08-10T00:01:53.458Z,20.67
2022-08-10T00:04:24.311Z,20.40
2022-08-10T00:06:54.645Z,20.19
2022-08-10T00:09:23.856Z,20.16
2022-08-10T00:11:51.423Z,20.01
2022-08-10T00:14:18.631Z,19.95
2022-08-10T00:16:45.593Z,20.11
2022-08-10T00:19:12.779Z,20.34
2022-08-10T00:21:44.569Z,20.43
2022-08-10T00:24:11.491Z,20.33
2022-08-10T00:27:51.974Z,20.41
2022-08-10T00:29:25.407Z,20.48
2022-08-10T00:31:58.199Z,20.50
2022-08-10T00:34:28.568Z,20.47
2022-08-10T00:36:56.310Z,20.34
2022-08-10T00:39:23.719Z,20.25
2022-08-10T00:42:06.792Z,20.23
2022-08-10T00:44:40.748Z,20.20
2022-08-10T00:47:10.364Z,20.12
2022-08-10T00:49:56.345Z,20.09
2022-08-10T00:52:25.241Z,20.06
2022-08-10T00:54:53.384Z,20.04
2022-08-10T00:57:21.033Z,19.93
2022-08-10T00:59:58.745Z,19.96
2022-08-10T01:02:29.429Z,19.97
2022-08-10T01:05:04.749Z,19.98
2022-08-10T01:07:50.979Z,19.91
2022-08-10T01:10:53.393Z,19.79
2022-08-10T01:14:15.138Z,19.79
2022-08-10T01:17:00.355Z,19.76
2022-08-10T01:20:02.474Z,19.64
2022-08-10T01:22:52.644Z,19.47
2022-08-10T01:25:33.881Z,19.43
2022-08-10T01:28:49.244Z,19.24
2022-08-10T01:31:23.798Z,19.30
2022-08-10T01:34:02.358Z,19.52
2022-08-10T01:36:39.871Z,19.44
2022-08-10T01:39:09.522Z,19.34
2022-08-10T01:41:47.158Z,19.31
2022-08-10T01:44:23.085Z,19.23
2022-08-10T01:47:21.746Z,19.07
2022-08-10T01:49:56.648Z,18.92
2022-08-10T01:52:27.383Z,18.98
2022-08-10T01:54:58.234Z,19.02
2022-08-10T01:57:28.941Z,19.03
2022-08-10T02:00:02.988Z,19.03
2022-08-10T02:02:32.923Z,19.03
2022-08-10T02:05:05.257Z,18.98
2022-08-10T02:07:37.795Z,19.07
2022-08-10T02:10:12.962Z,18.92
2022-08-10T02:12:43.223Z,18.94
2022-08-10T02:15:19.294Z,18.94
2022-08-10T02:18:01.842Z,19.13
2022-08-10T02:20:41.424Z,19.23
2022-08-10T02:23:15.297Z,19.08
2022-08-10T02:25:44.908Z,18.84
2022-08-10T02:28:29.992Z,18.77
2022-08-10T02:31:23.459Z,18.79
2022-08-10T02:33:57.653Z,18.83
2022-08-10T02:36:31.177Z,18.91
2022-08-10T02:39:03.696Z,18.85
2022-08-10T02:42:18.645Z,18.83
2022-08-10T02:45:19.339Z,18.75
2022-08-10T02:47:56.943Z,18.72
2022-08-10T02:50:35.325Z,18.76
2022-08-10T02:53:56.651Z,18.68
2022-08-10T02:56:28.813Z,18.46
2022-08-10T02:59:00.949Z,18.26
2022-08-10T03:01:36.814Z,18.35
2022-08-10T03:04:56.068Z,18.39
2022-08-10T03:07:44.449Z,18.30
2022-08-10T03:10:23.607Z,18.19
2022-08-10T03:12:57.579Z,17.98
2022-08-10T03:15:28.570Z,17.90
2022-08-10T03:17:58.922Z,17.97
2022-08-10T03:20:36.465Z,17.90
2022-08-10T03:23:12.792Z,17.82
2022-08-10T03:25:53.249Z,17.73
2022-08-10T03:28:24.591Z,17.67
2022-08-10T03:30:53.406Z,17.62
2022-08-10T03:33:23.623Z,17.54
2022-08-10T03:36:42.445Z,17.49
2022-08-10T03:38:45.961Z,17.46
2022-08-10T03:41:16.723Z,17.39
2022-08-10T03:43:48.790Z,17.56
2022-08-10T03:46:23.895Z,17.65
2022-08-10T03:48:55.729Z,17.74
2022-08-10T03:51:25.590Z,17.77
2022-08-10T03:54:03.817Z,17.55
2022-08-10T03:56:39.763Z,17.41
2022-08-10T03:59:12.255Z,17.28
2022-08-10T04:02:47.139Z,17.20
2022-08-10T04:04:28.883Z,17.28
2022-08-10T04:06:59.204Z,17.31
2022-08-10T04:09:53.586Z,17.27
2022-08-10T04:12:23.548Z,17.16
2022-08-10T04:14:52.894Z,17.19
2022-08-10T04:17:57.031Z,17.17
2022-08-10T04:20:34.443Z,17.07
2022-08-10T04:23:12.146Z,17.01
2022-08-10T04:25:40.837Z,17.00
2022-08-10T04:28:09.358Z,17.06
2022-08-10T04:30:38.515Z,17.01
2022-08-10T04:33:08.976Z,17.09
2022-08-10T04:35:37.528Z,17.02
2022-08-10T04:38:06.775Z,16.81
2022-08-10T04:40:33.866Z,16.70
2022-08-10T04:43:12.237Z,16.71
2022-08-10T04:45:50.524Z,16.80
2022-08-10T04:48:42.118Z,17.09
2022-08-10T04:51:18.297Z,17.22
2022-08-10T04:54:04.863Z,17.26
2022-08-10T04:56:39.244Z,17.08
2022-08-10T04:59:09.249Z,17.10
2022-08-10T05:02:21.954Z,17.08
2022-08-10T05:04:35.956Z,17.17
2022-08-10T05:07:16.867Z,17.12
2022-08-10T05:10:04.510Z,17.11
2022-08-10T05:12:40.735Z,16.99
2022-08-10T05:15:13.881Z,17.05
2022-08-10T05:18:04.644Z,17.25
2022-08-10T05:20:30.692Z,17.37
2022-08-10T05:22:58.778Z,17.20
2022-08-10T05:25:25.915Z,17.40
2022-08-10T05:27:54.741Z,17.57
2022-08-10T05:30:25.082Z,17.69
2022-08-10T05:32:56.506Z,17.90
2022-08-10T05:35:27.778Z,17.86
2022-08-10T05:38:10.636Z,17.96
2022-08-10T05:40:46.586Z,17.82
2022-08-10T05:43:21.836Z,17.97
2022-08-10T05:46:19.687Z,18.17
2022-08-10T05:48:58.938Z,18.44
2022-08-10T05:51:29.552Z,18.47
2022-08-10T05:54:02.116Z,18.48
2022-08-10T05:56:54.766Z,18.52
2022-08-10T06:00:35.615Z,18.68
2022-08-10T06:02:38.833Z,18.78
2022-08-10T06:05:30.579Z,18.83
2022-08-10T06:08:17.421Z,18.91
2022-08-10T06:12:23.949Z,19.01
2022-08-10T06:14:13.821Z,19.09
2022-08-10T06:16:44.391Z,19.29
2022-08-10T06:19:14.975Z,19.38
2022-08-10T06:22:00.651Z,19.46
2022-08-10T06:24:57.271Z,19.55
2022-08-10T06:27:34.623Z,19.64
2022-08-10T06:30:02.576Z,19.76
2022-08-10T06:32:31.657Z,19.84
2022-08-10T06:35:01.333Z,19.97
2022-08-10T06:37:33.260Z,19.99
2022-08-10T06:40:00.323Z,20.04
2022-08-10T06:42:41.090Z,20.14
2022-08-10T06:45:30.675Z,20.30
2022-08-10T06:48:21.018Z,20.41
2022-08-10T06:50:58.210Z,20.52
2022-08-10T06:53:53.249Z,20.60
2022-08-10T06:56:38.086Z,20.73
2022-08-10T06:59:30.953Z,20.85
2022-08-10T07:02:12.150Z,20.98
2022-08-10T07:05:03.713Z,21.12
2022-08-10T07:07:38.783Z,21.24
2022-08-10T07:10:08.821Z,21.36
2022-08-10T07:12:39.016Z,21.48
2022-08-10T07:15:12.222Z,21.59
2022-08-10T07:17:41.518Z,21.70
2022-08-10T07:20:11.738Z,21.81
2022-08-10T07:23:01.736Z,21.95
2022-08-10T07:25:29.764Z,22.09
2022-08-10T07:28:01.929Z,22.23
2022-08-10T07:30:35.850Z,22.39
2022-08-10T07:33:05.472Z,22.57
2022-08-10T07:35:42.345Z,22.73
2022-08-10T07:38:27.774Z,22.91
2022-08-10T07:40:58.245Z,23.05
2022-08-10T07:43:31.672Z,23.21
2022-08-10T07:46:01.896Z,23.39
2022-08-10T07:48:39.095Z,23.57
2022-08-10T07:51:09.725Z,23.72
2022-08-10T07:53:45.277Z,23.95
2022-08-10T07:56:26.275Z,24.13
2022-08-10T07:59:10.817Z,24.33
2022-08-10T08:01:50.452Z,24.50
2022-08-10T08:04:21.925Z,24.62
2022-08-10T08:06:52.163Z,24.78
2022-08-10T08:09:21.951Z,25.01
2022-08-10T08:11:51.453Z,25.21
2022-08-10T08:14:21.990Z,25.41
2022-08-10T08:16:53.204Z,25.61
2022-08-10T08:19:35.922Z,25.79
2022-08-10T08:24:07.955Z,25.99
2022-08-10T08:25:03.592Z,26.18
2022-08-10T08:27:33.219Z,26.22
2022-08-10T08:30:01.807Z,26.38
2022-08-10T08:32:33.284Z,26.56
2022-08-10T08:35:14.698Z,26.60
2022-08-10T08:38:32.338Z,26.76
2022-08-10T08:40:39.155Z,27.04
2022-08-10T08:43:44.880Z,27.28
2022-08-10T08:46:44.290Z,27.30
2022-08-10T08:50:07.985Z,27.56
2022-08-10T08:52:59.653Z,27.83
2022-08-10T08:56:03.669Z,27.94
2022-08-10T08:59:09.830Z,28.11
2022-08-10T09:01:58.341Z,28.33
2022-08-10T09:04:57.235Z,28.59
2022-08-10T09:08:00.174Z,28.69
2022-08-10T09:10:44.320Z,28.92
2022-08-10T09:13:29.465Z,29.03
2022-08-10T09:16:35.209Z,29.18
2022-08-10T09:19:35.361Z,29.29
2022-08-10T09:22:32.397Z,29.45
2022-08-10T09:25:18.540Z,29.43
2022-08-10T09:28:14.110Z,29.38
2022-08-10T09:31:21.324Z,29.41
2022-08-10T09:36:21.260Z,29.53
2022-08-10T09:38:01.319Z,29.72
2022-08-10T09:40:59.927Z,29.85
2022-08-10T09:43:44.029Z,30.00
2022-08-10T09:46:33.271Z,29.83
2022-08-10T09:49:22.368Z,29.82
2022-08-10T09:52:15.123Z,29.88
2022-08-10T09:55:12.865Z,30.12
2022-08-10T09:57:46.298Z,30.16
2022-08-10T10:00:25.898Z,30.44
2022-08-10T10:03:36.168Z,30.62
2022-08-10T10:06:12.199Z,30.90
2022-08-10T10:09:15.531Z,30.86
2022-08-10T10:12:10.188Z,30.79
2022-08-10T10:15:33.040Z,30.83
2022-08-10T10:18:02.817Z,31.20
2022-08-10T10:20:49.934Z,31.34
2022-08-10T10:24:15.525Z,31.62
2022-08-10T10:27:02.438Z,31.62
2022-08-10T10:30:01.501Z,31.79
2022-08-10T10:32:58.235Z,31.88
2022-08-10T10:35:36.526Z,32.22
2022-08-10T10:38:08.978Z,32.30
2022-08-10T10:40:46.400Z,32.40
2022-08-10T10:43:45.126Z,32.55
2022-08-10T10:46:29.960Z,32.50
2022-08-10T10:49:31.123Z,32.40
2022-08-10T10:52:25.238Z,32.57
2022-08-10T10:55:30.432Z,32.91
2022-08-10T10:58:23.238Z,32.95
2022-08-10T11:01:28.494Z,33.04
2022-08-10T11:04:27.409Z,33.37
2022-08-10T11:07:31.893Z,33.70
2022-08-10T11:10:32.083Z,33.54
2022-08-10T11:14:24.800Z,33.59
2022-08-10T11:16:28.671Z,33.72
2022-08-10T11:19:23.091Z,33.75
2022-08-10T11:22:20.284Z,34.04
2022-08-10T11:25:01.648Z,34.24
2022-08-10T11:27:59.291Z,34.72
2022-08-10T11:30:55.430Z,35.22
2022-08-10T11:38:34.436Z,35.84
2022-08-10T11:40:49.135Z,35.97
2022-08-10T11:43:27.034Z,36.26
2022-08-10T11:46:28.789Z,36.89
2022-08-10T11:49:32.004Z,37.28
2022-08-10T11:52:15.441Z,37.20
2022-08-10T11:54:55.006Z,37.37
2022-08-10T11:57:53.981Z,37.72
2022-08-10T12:00:19.921Z,37.78
2022-08-10T12:02:56.586Z,37.92
2022-08-10T12:05:46.588Z,38.23
2022-08-10T12:10:04.616Z,38.16
2022-08-10T12:11:23.928Z,38.36
2022-08-10T12:14:32.313Z,38.84
2022-08-10T12:17:25.132Z,38.72
2022-08-10T12:20:03.915Z,38.94
2022-08-10T12:22:58.180Z,38.72
2022-08-10T12:25:58.322Z,38.72
2022-08-10T12:28:52.141Z,38.42
2022-08-10T12:31:29.722Z,38.90
2022-08-10T12:34:23.275Z,39.05
2022-08-10T12:37:28.694Z,39.23
2022-08-10T12:40:41.244Z,39.18
2022-08-10T12:44:07.454Z,39.30
2022-08-10T12:46:31.118Z,39.24
2022-08-10T12:49:20.078Z,39.40
2022-08-10T12:52:17.582Z,39.63
2022-08-10T12:54:46.420Z,39.84
2022-08-10T12:57:19.093Z,39.92
2022-08-10T12:59:56.798Z,40.08
2022-08-10T13:02:29.565Z,39.98
2022-08-10T13:05:02.908Z,40.04
2022-08-10T13:08:04.062Z,39.86
2022-08-10T13:10:25.136Z,40.04
2022-08-10T13:12:58.174Z,40.13
2022-08-10T13:15:48.645Z,40.18
2022-08-10T13:18:34.072Z,40.39
2022-08-10T13:21:20.373Z,40.16
2022-08-10T13:24:03.603Z,40.41
2022-08-10T13:27:22.729Z,40.60
2022-08-10T13:29:36.650Z,40.50
2022-08-10T13:32:10.393Z,40.29
2022-08-10T13:34:46.085Z,40.39
2022-08-10T13:37:22.995Z,40.79
2022-08-10T13:39:58.830Z,40.72
2022-08-10T13:42:35.794Z,40.27
2022-08-10T13:45:14.549Z,40.24
2022-08-10T13:47:48.934Z,39.95
2022-08-10T13:50:33.691Z,39.56
2022-08-10T13:53:14.402Z,39.80
2022-08-10T13:55:54.981Z,39.79
2022-08-10T13:58:37.024Z,39.69
2022-08-10T14:01:21.175Z,39.74
2022-08-10T14:03:51.418Z,39.64
2022-08-10T14:06:29.763Z,39.73
2022-08-10T14:09:02.137Z,39.10
2022-08-10T14:11:31.847Z,39.05
2022-08-10T14:14:21.124Z,39.03
2022-08-10T14:16:50.761Z,38.95
2022-08-10T14:19:26.511Z,38.98
2022-08-10T14:21:55.167Z,38.98
2022-08-10T14:24:29.571Z,38.98
2022-08-10T14:27:11.464Z,38.67
2022-08-10T14:29:53.475Z,38.57
2022-08-10T14:32:25.853Z,38.49
2022-08-10T14:36:15.372Z,37.99
2022-08-10T14:37:54.651Z,37.98
2022-08-10T14:40:33.670Z,37.66
2022-08-10T14:43:06.858Z,37.67
2022-08-10T14:45:41.920Z,37.87
2022-08-10T14:48:16.398Z,37.02
2022-08-10T14:50:55.543Z,36.43
2022-08-10T14:53:27.908Z,36.52
2022-08-10T14:56:04.243Z,36.50
2022-08-10T14:59:06.427Z,36.73
2022-08-10T15:02:01.514Z,36.29
2022-08-10T15:04:26.758Z,35.65
2022-08-10T15:07:03.308Z,35.60
2022-08-10T15:10:00.830Z,35.51
2022-08-10T15:12:41.241Z,35.04
2022-08-10T15:15:16.344Z,34.42
2022-08-10T15:17:53.613Z,34.01
2022-08-10T15:20:29.925Z,33.86
2022-08-10T15:23:31.318Z,33.77
2022-08-10T15:26:11.258Z,33.78
2022-08-10T15:29:22.349Z,33.79
2022-08-10T15:31:35.533Z,33.67
2022-08-10T15:34:28.886Z,33.56
2022-08-10T15:37:02.302Z,33.16
2022-08-10T15:40:21.642Z,32.63
2022-08-10T15:43:05.655Z,32.38
2022-08-10T15:46:02.775Z,32.17
2022-08-10T15:48:40.135Z,32.09
2022-08-10T15:51:21.768Z,31.96
2022-08-10T15:54:12.063Z,31.77
2022-08-10T15:56:58.937Z,31.78
2022-08-10T15:59:43.223Z,31.85
2022-08-10T16:02:18.735Z,31.74
2022-08-10T16:05:08.138Z,31.50
2022-08-10T16:07:46.271Z,31.41
2022-08-10T16:10:28.244Z,31.33
2022-08-10T16:14:00.460Z,31.24
2022-08-10T16:16:02.885Z,31.10
2022-08-10T16:18:36.750Z,31.04
2022-08-10T16:21:22.310Z,31.03
2022-08-10T16:24:14.361Z,30.95
2022-08-10T16:26:50.113Z,30.89
2022-08-10T16:29:24.823Z,30.84
2022-08-10T16:31:57.162Z,30.79
2022-08-10T16:34:29.273Z,30.72
2022-08-10T16:37:09.620Z,30.70
2022-08-10T16:39:58.554Z,30.73
2022-08-10T16:42:33.391Z,30.61
2022-08-10T16:45:14.982Z,30.57
2022-08-10T16:47:51.745Z,30.49
2022-08-10T16:50:29.786Z,30.39
2022-08-10T16:53:02.087Z,30.40
2022-08-10T16:55:49.893Z,30.39
2022-08-10T16:58:29.806Z,30.22
2022-08-10T17:01:16.439Z,30.12
2022-08-10T17:04:06.481Z,30.14
2022-08-10T17:07:03.808Z,30.14
2022-08-10T17:09:35.236Z,30.14
2022-08-10T17:12:16.382Z,30.09
2022-08-10T17:14:44.756Z,30.14
2022-08-10T17:17:37.519Z,29.96
2022-08-10T17:20:30.177Z,29.96
2022-08-10T17:23:02.703Z,29.90
2022-08-10T17:25:46.206Z,29.79
2022-08-10T17:28:32.665Z,29.81
2022-08-10T17:31:39.702Z,29.74
2022-08-10T17:34:28.347Z,29.65
2022-08-10T17:37:03.885Z,29.60
2022-08-10T17:39:50.063Z,29.51
2022-08-10T17:42:22.273Z,29.52
2022-08-10T17:44:53.298Z,29.45
2022-08-10T17:47:27.687Z,29.43
2022-08-10T17:50:03.510Z,29.42
2022-08-10T17:52:33.433Z,29.33
2022-08-10T17:55:06.969Z,29.23
2022-08-10T17:57:40.314Z,29.20
2022-08-10T18:00:14.905Z,29.19
2022-08-10T18:02:48.867Z,29.17
2022-08-10T18:05:17.631Z,29.15
2022-08-10T18:07:53.203Z,29.12
2022-08-10T18:10:24.629Z,29.03
2022-08-10T18:12:56.788Z,29.00
2022-08-10T18:15:29.658Z,28.99
2022-08-10T18:18:02.570Z,28.93
2022-08-10T18:20:39.107Z,28.85
2022-08-10T18:23:08.375Z,28.74
2022-08-10T18:25:43.428Z,28.66
2022-08-10T18:28:20.295Z,28.63
2022-08-10T18:30:55.143Z,28.52
2022-08-10T18:33:32.684Z,28.47
2022-08-10T18:36:09.346Z,28.37
2022-08-10T18:38:40.262Z,28.34
2022-08-10T18:41:16.720Z,28.29
2022-08-10T18:44:06.976Z,28.27
2022-08-10T18:46:46.532Z,28.10
2022-08-10T18:49:25.946Z,28.01
2022-08-10T18:52:01.958Z,27.81
2022-08-10T18:54:44.555Z,27.57
2022-08-10T18:57:35.773Z,27.41
2022-08-10T19:00:08.094Z,27.27
2022-08-10T19:03:31.175Z,27.10
2022-08-10T19:06:25.592Z,27.06
2022-08-10T19:09:46.498Z,26.88
2022-08-10T19:12:31.826Z,26.69
2022-08-10T19:15:48.192Z,26.59
2022-08-10T19:19:25.942Z,26.47
2022-08-10T19:22:14.603Z,26.31
2022-08-10T19:25:01.569Z,26.18
2022-08-10T19:28:13.016Z,25.99
2022-08-10T19:30:58.845Z,25.91
2022-08-10T19:34:11.588Z,25.78
2022-08-10T19:36:56.010Z,25.69
2022-08-10T19:39:50.654Z,25.63
2022-08-10T19:42:53.915Z,25.62
2022-08-10T19:46:03.071Z,25.62
2022-08-10T19:49:01.994Z,25.59
2022-08-10T19:52:27.197Z,25.51
2022-08-10T19:55:32.228Z,25.46
2022-08-10T19:58:59.350Z,25.45
2022-08-10T20:01:55.349Z,25.34
2022-08-10T20:04:31.908Z,25.23
2022-08-10T20:07:24.214Z,25.16
2022-08-10T20:10:03.717Z,25.12
2022-08-10T20:12:55.906Z,25.08
2022-08-10T20:15:44.460Z,24.93
2022-08-10T20:18:36.581Z,24.93
2022-08-10T20:21:19.637Z,24.83
2022-08-10T20:24:06.249Z,24.74
2022-08-10T20:26:45.655Z,24.71
2022-08-10T20:29:58.622Z,24.58
2022-08-10T20:32:37.973Z,24.52
2022-08-10T20:35:42.304Z,24.52
2022-08-10T20:38:14.579Z,24.49
2022-08-10T20:41:19.689Z,24.45
2022-08-10T20:44:34.570Z,24.31
2022-08-10T20:47:28.993Z,24.19
2022-08-10T20:50:40.494Z,24.07
2022-08-10T20:53:16.124Z,24.02
2022-08-10T20:56:11.149Z,23.96
2022-08-10T20:59:23.493Z,23.75
2022-08-10T21:02:50.735Z,23.28
2022-08-10T21:05:31.791Z,23.05
2022-08-10T21:08:14.496Z,23.00
2022-08-10T21:11:28.155Z,22.99
2022-08-10T21:14:35.686Z,22.86
2022-08-10T21:17:35.140Z,22.86
2022-08-10T21:20:54.612Z,22.89
2022-08-10T21:25:42.202Z,22.91
2022-08-10T21:26:47.253Z,22.86
2022-08-10T21:29:41.955Z,22.66
2022-08-10T21:32:39.229Z,22.68
2022-08-10T21:35:19.958Z,22.59
2022-08-10T21:38:11.849Z,22.30
2022-08-10T21:41:56.389Z,22.18
2022-08-10T21:45:09.271Z,22.37
2022-08-10T21:48:57.601Z,22.41
2022-08-10T21:52:00.506Z,22.29
2022-08-10T21:55:08.733Z,22.11
2022-08-10T21:58:18.277Z,22.12
2022-08-10T22:01:15.270Z,22.13
2022-08-10T22:04:02.179Z,21.84
2022-08-10T22:06:55.150Z,21.66
2022-08-10T22:09:52.343Z,21.66
2022-08-10T22:12:50.744Z,21.58
2022-08-10T22:16:03.963Z,21.46
2022-08-10T22:18:58.762Z,21.21
2022-08-10T22:22:06.471Z,21.16
2022-08-10T22:25:45.208Z,21.19
2022-08-10T22:28:37.044Z,21.19
2022-08-10T22:31:47.503Z,21.28
2022-08-10T22:35:00.876Z,21.42
2022-08-10T22:37:58.512Z,21.33
2022-08-10T22:40:53.705Z,21.09
2022-08-10T22:43:48.543Z,21.00
2022-08-10T22:46:52.747Z,20.97
2022-08-10T22:49:24.101Z,21.04
2022-08-10T22:52:18.289Z,21.12
2022-08-10T22:55:23.468Z,21.26
2022-08-10T22:58:09.367Z,21.27
2022-08-10T23:00:38.185Z,20.96
2022-08-10T23:03:22.002Z,21.01
2022-08-10T23:06:00.265Z,20.91
2022-08-10T23:08:56.603Z,20.79
2022-08-10T23:11:32.120Z,20.74
2022-08-10T23:14:06.313Z,20.60
2022-08-10T23:17:11.293Z,20.66
2022-08-10T23:20:15.504Z,20.59
2022-08-10T23:23:01.848Z,20.53
2022-08-10T23:25:34.201Z,20.43
2022-08-10T23:28:12.299Z,20.30
2022-08-10T23:30:45.110Z,20.23
2022-08-10T23:33:15.107Z,20.04
2022-08-10T23:36:32.444Z,19.87
2022-08-10T23:39:24.091Z,19.79
2022-08-10T23:41:38.956Z,19.91
2022-08-10T23:44:08.136Z,19.88
2022-08-10T23:46:42.269Z,19.82
2022-08-10T23:49:12.785Z,19.83
2022-08-10T23:51:56.348Z,19.75
2022-08-10T23:54:25.565Z,19.86
2022-08-10T23:57:01.455Z,19.97
2022-08-10T23:59:31.736Z,19.81
